Time;durP1;ratioP1;P1;durP2;ratioP2;P2;SDS_P1;SDS_P2;PMS_P1;PMS_P2;Temp;Humidity;BMP_temperature;BMP_pressure;BME280_temperature;BME280_humidity;BME280_pressure;Samples;Min_cycle;Max_cycle;Signal;HPM_P1;HPM_P2
2022/02/08 00:00:20;;;;;;;3.10;0.80;;;;;;;;;;5051106;28;20116;-79
2022/02/08 00:02:51;;;;;;;0.60;0.30;;;;;;;;;;5051749;28;20025;-77
2022/02/08 00:05:19;;;;;;;1.27;0.40;;;;;;;;;;5051253;28;20167;-76
2022/02/08 00:07:48;;;;;;;1.10;0.45;;;;;;;;;;5050939;28;20043;-77
2022/02/08 00:10:15;;;;;;;1.60;0.70;;;;;;;;;;5067924;28;20124;-75
2022/02/08 00:12:43;;;;;;;0.95;0.63;;;;;;;;;;5051704;28;20098;-77
2022/02/08 00:15:10;;;;;;;1.98;0.60;;;;;;;;;;5051446;28;20044;-79
2022/02/08 00:17:36;;;;;;;4.63;0.98;;;;;;;;;;5051516;28;20090;-76
2022/02/08 00:20:07;;;;;;;0.93;0.40;;;;;;;;;;5066891;28;20042;-79
2022/02/08 00:22:34;;;;;;;2.08;0.70;;;;;;;;;;5052200;28;20048;-74
2022/02/08 00:25:02;;;;;;;2.42;0.55;;;;;;;;;;5052233;28;20082;-77
2022/02/08 00:27:28;;;;;;;1.92;0.35;;;;;;;;;;5050095;28;20033;-76
2022/02/08 00:29:55;;;;;;;2.67;0.55;;;;;;;;;;5067261;28;20440;-76
2022/02/08 00:32:21;;;;;;;0.68;0.20;;;;;;;;;;5068118;28;20036;-77
2022/02/08 00:34:49;;;;;;;4.60;0.50;;;;;;;;;;5067009;28;20040;-78
2022/02/08 00:37:16;;;;;;;0.80;0.40;;;;;;;;;;5051737;28;20040;-77
2022/02/08 00:39:44;;;;;;;1.98;0.60;;;;;;;;;;5066700;28;20029;-79
2022/02/08 00:42:11;;;;;;;2.58;0.57;;;;;;;;;;5050926;28;20041;-76
2022/02/08 00:49:46;;;;;;;3.88;0.45;;;;;;;;;;5050261;28;20033;-76
2022/02/08 00:52:15;;;;;;;0.50;0.30;;;;;;;;;;5066661;28;20029;-76
2022/02/08 00:54:53;;;;;;;0.52;0.30;;;;;;;;;;5051092;28;20089;-80
2022/02/08 00:57:19;;;;;;;2.30;0.43;;;;;;;;;;5066941;28;20048;-80
2022/02/08 00:59:45;;;;;;;5.78;1.05;;;;;;;;;;5050214;28;20039;-80
2022/02/08 01:02:12;;;;;;;0.68;0.20;;;;;;;;;;5050647;28;20601;-80
2022/02/08 01:04:38;;;;;;;1.98;0.47;;;;;;;;;;5065118;28;20037;-77
2022/02/08 01:07:05;;;;;;;0.85;0.40;;;;;;;;;;5050072;28;20032;-76
2022/02/08 01:12:17;;;;;;;1.20;0.40;;;;;;;;;;5051053;28;20039;-79
2022/02/08 01:14:45;;;;;;;1.60;0.38;;;;;;;;;;5050469;28;20158;-77
2022/02/08 01:17:13;;;;;;;1.60;0.45;;;;;;;;;;5049769;28;20111;-76
2022/02/08 01:19:46;;;;;;;2.17;0.45;;;;;;;;;;5050689;28;20031;-78
2022/02/08 01:22:12;;;;;;;4.22;1.10;;;;;;;;;;5066988;28;20033;-79
2022/02/08 01:24:39;;;;;;;2.65;1.00;;;;;;;;;;5050776;28;20441;-75
2022/02/08 01:27:09;;;;;;;0.90;0.38;;;;;;;;;;5051125;28;20040;-77
2022/02/08 01:29:40;;;;;;;0.70;0.45;;;;;;;;;;5050653;28;20387;-77
2022/02/08 01:40:29;;;;;;;1.33;0.40;;;;;;;;;;5050303;28;20040;-78
2022/02/08 01:50:36;;;;;;;3.00;0.40;;;;;;;;;;5049947;28;20900;-79
2022/02/08 01:53:05;;;;;;;0.60;0.20;;;;;;;;;;5050544;28;20075;-78
2022/02/08 01:55:34;;;;;;;0.68;0.20;;;;;;;;;;5050125;28;20021;-76
2022/02/08 01:58:02;;;;;;;0.93;0.38;;;;;;;;;;5066279;28;20108;-78
2022/02/08 02:00:28;;;;;;;1.65;0.65;;;;;;;;;;5067927;28;20033;-77
2022/02/08 02:02:57;;;;;;;0.52;0.20;;;;;;;;;;5070382;28;20029;-76
2022/02/08 02:05:25;;;;;;;0.30;0.10;;;;;;;;;;5053192;28;20025;-77
2022/02/08 02:07:51;;;;;;;1.13;0.40;;;;;;;;;;5069544;28;20044;-78
2022/02/08 02:10:19;;;;;;;1.02;0.25;;;;;;;;;;5069437;28;20033;-80
2022/02/08 02:12:52;;;;;;;0.82;0.20;;;;;;;;;;5070639;28;20036;-79
2022/02/08 02:15:18;;;;;;;1.15;0.40;;;;;;;;;;5053018;28;20116;-79
2022/02/08 02:17:44;;;;;;;0.70;0.25;;;;;;;;;;5054516;28;20032;-77
2022/02/08 02:20:10;;;;;;;0.93;0.30;;;;;;;;;;5053396;28;20108;-77
2022/02/08 02:22:37;;;;;;;2.10;0.45;;;;;;;;;;5069061;28;20033;-79
2022/02/08 02:25:03;;;;;;;0.55;0.20;;;;;;;;;;5053318;28;20028;-77
2022/02/08 02:27:29;;;;;;;1.52;0.25;;;;;;;;;;5068803;28;20044;-77
2022/02/08 02:29:55;;;;;;;0.35;0.20;;;;;;;;;;5053302;28;20029;-78
2022/02/08 02:32:21;;;;;;;0.47;0.25;;;;;;;;;;5052941;28;20036;-79
2022/02/08 02:34:48;;;;;;;0.40;0.30;;;;;;;;;;5053565;28;20033;-77
2022/02/08 02:37:14;;;;;;;0.57;0.30;;;;;;;;;;5069954;28;20028;-77
2022/02/08 02:39:41;;;;;;;0.93;0.40;;;;;;;;;;5052525;28;20062;-75
2022/02/08 02:42:13;;;;;;;2.25;0.30;;;;;;;;;;5054004;28;20093;-79
2022/02/08 02:44:42;;;;;;;0.40;0.20;;;;;;;;;;5053188;28;20035;-75
2022/02/08 02:47:08;;;;;;;0.30;0.20;;;;;;;;;;5053843;28;20032;-80
2022/02/08 02:49:36;;;;;;;0.77;0.45;;;;;;;;;;5053030;28;20089;-80
2022/02/08 02:52:06;;;;;;;0.35;0.20;;;;;;;;;;5068487;28;20095;-79
2022/02/08 02:54:32;;;;;;;2.55;0.60;;;;;;;;;;5052730;28;20672;-79
2022/02/08 02:57:00;;;;;;;0.65;0.28;;;;;;;;;;5052468;28;20039;-80
2022/02/08 02:59:31;;;;;;;2.35;0.40;;;;;;;;;;5068599;28;20103;-79
2022/02/08 03:20:38;;;;;;;0.47;0.20;;;;;;;;;;5053952;28;20050;-79
2022/02/08 03:23:08;;;;;;;0.20;0.10;;;;;;;;;;5052130;28;20119;-77
2022/02/08 03:25:34;;;;;;;0.73;0.25;;;;;;;;;;5052208;28;20472;-77
2022/02/08 03:28:00;;;;;;;0.10;0.10;;;;;;;;;;5052160;28;20041;-78
2022/02/08 03:30:29;;;;;;;0.82;0.28;;;;;;;;;;5052283;28;20071;-77
2022/02/08 03:32:55;;;;;;;0.98;0.40;;;;;;;;;;5053426;28;20149;-77
2022/02/08 03:35:21;;;;;;;0.55;0.32;;;;;;;;;;5051532;28;20029;-79
2022/02/08 03:38:00;;;;;;;0.22;0.22;;;;;;;;;;5052550;28;20100;-78
2022/02/08 03:40:38;;;;;;;0.40;0.10;;;;;;;;;;5051418;28;20035;-79
2022/02/08 03:43:25;;;;;;;0.40;0.20;;;;;;;;;;5068146;28;20032;-78
2022/02/08 03:45:55;;;;;;;1.15;0.43;;;;;;;;;;5067092;28;20083;-77
2022/02/08 03:48:25;;;;;;;0.38;0.13;;;;;;;;;;5054004;28;20028;-77
2022/02/08 03:50:54;;;;;;;0.85;0.25;;;;;;;;;;5052573;28;20116;-77
2022/02/08 03:53:23;;;;;;;0.28;0.15;;;;;;;;;;5051790;28;20795;-77
2022/02/08 03:55:52;;;;;;;1.13;0.28;;;;;;;;;;5067912;28;20619;-79
2022/02/08 03:58:18;;;;;;;0.10;0.10;;;;;;;;;;5051622;28;20029;-74
2022/02/08 04:03:13;;;;;;;0.65;0.45;;;;;;;;;;5052295;28;20122;-77
2022/02/08 04:05:43;;;;;;;0.40;0.10;;;;;;;;;;5066571;28;20040;-75
2022/02/08 04:08:12;;;;;;;3.92;0.30;;;;;;;;;;5051392;28;20062;-75
2022/02/08 04:10:43;;;;;;;1.63;0.20;;;;;;;;;;5067102;28;20033;-77
2022/02/08 04:18:46;;;;;;;1.15;0.28;;;;;;;;;;5052320;28;20106;-78
2022/02/08 04:43:01;;;;;;;0.65;0.30;;;;;;;;;;5050449;28;20128;-76
2022/02/08 04:45:54;;;;;;;0.17;0.10;;;;;;;;;;5049919;28;20036;-80
2022/02/08 04:48:59;;;;;;;0.13;0.10;;;;;;;;;;5050253;28;20044;-78
2022/02/08 04:53:51;;;;;;;1.17;0.38;;;;;;;;;;5051704;28;20032;-75
2022/02/08 04:56:26;;;;;;;0.47;0.20;;;;;;;;;;5050696;28;20040;-75
2022/02/08 04:59:05;;;;;;;0.20;0.20;;;;;;;;;;5051374;28;20651;-79
2022/02/08 05:34:10;;;;;;;0.20;0.10;;;;;;;;;;5050308;28;20052;-79
2022/02/08 05:42:44;;;;;;;0.20;0.20;;;;;;;;;;5053887;28;19962;-77
2022/02/08 05:47:44;;;;;;;0.10;0.10;;;;;;;;;;5054524;28;20048;-76
2022/02/08 05:50:25;;;;;;;0.20;0.20;;;;;;;;;;5070418;28;20041;-77
2022/02/08 05:53:05;;;;;;;0.28;0.20;;;;;;;;;;5053911;28;20606;-77
2022/02/08 05:55:34;;;;;;;0.20;0.10;;;;;;;;;;5069548;28;20046;-77
2022/02/08 05:58:00;;;;;;;0.17;0.10;;;;;;;;;;5054297;28;20052;-78
2022/02/08 06:00:29;;;;;;;1.65;0.25;;;;;;;;;;5054881;28;20036;-76
2022/02/08 06:02:59;;;;;;;1.33;0.40;;;;;;;;;;5054097;28;20103;-77
2022/02/08 06:05:25;;;;;;;0.30;0.25;;;;;;;;;;5055375;28;20093;-79
2022/02/08 06:07:51;;;;;;;0.30;0.30;;;;;;;;;;5055110;28;20047;-78
2022/02/08 06:10:18;;;;;;;0.10;0.10;;;;;;;;;;5055398;28;20089;-77
2022/02/08 06:12:49;;;;;;;0.30;0.20;;;;;;;;;;5055363;28;20128;-79
2022/02/08 06:15:21;;;;;;;0.38;0.30;;;;;;;;;;5052430;28;20029;-80
2022/02/08 06:17:47;;;;;;;0.13;0.13;;;;;;;;;;5053018;28;20028;-78
2022/02/08 06:20:13;;;;;;;0.20;0.10;;;;;;;;;;5054222;28;20048;-79
2022/02/08 06:22:41;;;;;;;0.52;0.20;;;;;;;;;;5069483;28;20021;-78
2022/02/08 06:25:10;;;;;;;0.60;0.30;;;;;;;;;;5053758;28;21721;-79
2022/02/08 06:27:37;;;;;;;0.35;0.30;;;;;;;;;;5068278;28;20017;-79
2022/02/08 06:30:03;;;;;;;0.13;0.08;;;;;;;;;;5069622;28;20032;-78
2022/02/08 06:32:32;;;;;;;0.45;0.15;;;;;;;;;;5052485;28;20062;-79
2022/02/08 06:35:01;;;;;;;0.63;0.28;;;;;;;;;;5068922;28;20074;-77
2022/02/08 06:37:33;;;;;;;0.22;0.20;;;;;;;;;;5052456;28;20124;-75
2022/02/08 06:39:59;;;;;;;0.38;0.20;;;;;;;;;;5052764;28;20036;-79
2022/02/08 06:42:25;;;;;;;1.10;0.43;;;;;;;;;;5052695;28;20051;-78
2022/02/08 06:44:51;;;;;;;0.40;0.10;;;;;;;;;;5052673;28;20052;-75
2022/02/08 06:47:17;;;;;;;0.20;0.17;;;;;;;;;;5065768;28;20037;-75
2022/02/08 06:49:44;;;;;;;0.20;0.10;;;;;;;;;;5053979;28;20036;-80
2022/02/08 06:52:10;;;;;;;0.10;0.10;;;;;;;;;;5068440;28;20813;-76
2022/02/08 06:54:36;;;;;;;0.25;0.10;;;;;;;;;;5053292;28;20028;-76
2022/02/08 06:57:02;;;;;;;0.60;0.20;;;;;;;;;;5067588;28;20437;-77
2022/02/08 06:59:31;;;;;;;0.98;0.40;;;;;;;;;;5052857;28;20032;-78
2022/02/08 07:01:57;;;;;;;0.20;0.10;;;;;;;;;;5068204;28;20037;-79
2022/02/08 07:04:23;;;;;;;0.65;0.20;;;;;;;;;;5052134;28;20099;-78
2022/02/08 07:06:49;;;;;;;0.20;0.13;;;;;;;;;;5052333;28;20032;-76
2022/02/08 07:09:15;;;;;;;0.10;0.10;;;;;;;;;;5068483;28;20047;-77
2022/02/08 07:11:47;;;;;;;0.30;0.30;;;;;;;;;;5052924;28;20025;-79
2022/02/08 07:14:13;;;;;;;0.10;0.10;;;;;;;;;;5052413;28;20033;-79
2022/02/08 07:16:39;;;;;;;0.88;0.30;;;;;;;;;;5051599;28;20029;-78
2022/02/08 07:19:07;;;;;;;0.10;0.10;;;;;;;;;;5051718;28;20571;-76
2022/02/08 07:21:36;;;;;;;0.13;0.13;;;;;;;;;;5068197;28;20713;-80
2022/02/08 07:24:02;;;;;;;1.65;0.20;;;;;;;;;;5067340;28;20112;-76
2022/02/08 07:26:28;;;;;;;0.20;0.10;;;;;;;;;;5066701;28;20063;-76
2022/02/08 07:28:54;;;;;;;0.13;0.13;;;;;;;;;;5051834;28;20087;-77
2022/02/08 07:31:25;;;;;;;2.00;0.70;;;;;;;;;;5051716;28;20041;-75
2022/02/08 07:34:00;;;;;;;5.77;0.90;;;;;;;;;;5051809;28;20044;-78
2022/02/08 07:38:57;;;;;;;7.20;1.63;;;;;;;;;;5052224;28;20066;-74
2022/02/08 07:41:37;;;;;;;13.43;2.40;;;;;;;;;;5051566;28;20032;-75
2022/02/08 07:44:07;;;;;;;19.70;2.75;;;;;;;;;;5051803;28;20099;-77
2022/02/08 07:46:33;;;;;;;5.45;1.88;;;;;;;;;;5066783;28;20116;-75
2022/02/08 07:49:01;;;;;;;15.50;4.07;;;;;;;;;;5052207;28;20036;-77
2022/02/08 07:51:27;;;;;;;12.88;3.13;;;;;;;;;;5051847;28;20029;-76
2022/02/08 07:53:54;;;;;;;9.02;4.38;;;;;;;;;;5051059;28;20033;-75
2022/02/08 07:56:20;;;;;;;11.50;2.47;;;;;;;;;;5051530;28;20029;-77
2022/02/08 07:58:46;;;;;;;7.68;1.88;;;;;;;;;;5067832;28;20559;-76
2022/02/08 08:01:14;;;;;;;8.25;3.20;;;;;;;;;;5051832;28;20029;-75
2022/02/08 08:03:42;;;;;;;11.38;2.47;;;;;;;;;;5067414;28;20368;-77
2022/02/08 08:06:13;;;;;;;7.85;2.63;;;;;;;;;;5067158;28;20066;-77
2022/02/08 08:08:39;;;;;;;12.30;2.42;;;;;;;;;;5051647;28;20099;-74
2022/02/08 08:11:10;;;;;;;13.52;2.40;;;;;;;;;;5066756;28;20444;-78
2022/02/08 08:14:11;;;;;;;11.98;3.63;;;;;;;;;;5051201;28;20043;-76
2022/02/08 08:19:38;;;;;;;8.98;2.92;;;;;;;;;;5051133;28;20041;-77
2022/02/08 08:21:46;;;;;;;2.55;0.93;;;;;;;;;;5048917;28;20025;-76
2022/02/08 08:24:13;;;;;;;4.25;1.40;;;;;;;;;;5050728;28;20440;-76
2022/02/08 08:26:40;;;;;;;4.60;2.47;;;;;;;;;;5051363;28;20029;-76
2022/02/08 08:29:06;;;;;;;3.05;1.67;;;;;;;;;;5065409;28;20037;-77
2022/02/08 08:31:35;;;;;;;10.05;2.65;;;;;;;;;;5050844;28;20130;-77
2022/02/08 08:34:04;;;;;;;8.40;1.25;;;;;;;;;;5067051;28;20028;-76
2022/02/08 08:36:31;;;;;;;7.38;1.23;;;;;;;;;;5051532;28;20357;-75
2022/02/08 08:38:57;;;;;;;1.90;1.00;;;;;;;;;;5051014;28;20048;-77
2022/02/08 08:51:50;;;;;;;10.15;1.33;;;;;;;;;;5049685;28;20025;-76
2022/02/08 08:54:17;;;;;;;3.63;0.95;;;;;;;;;;5065874;28;20024;-77
2022/02/08 08:56:44;;;;;;;1.85;0.70;;;;;;;;;;5050145;28;20063;-76
2022/02/08 08:59:11;;;;;;;5.82;0.80;;;;;;;;;;5065480;28;20028;-77
2022/02/08 09:01:38;;;;;;;3.50;1.10;;;;;;;;;;5065463;28;20035;-76
2022/02/08 09:04:05;;;;;;;6.53;1.48;;;;;;;;;;5065769;28;20032;-76
2022/02/08 09:06:33;;;;;;;5.60;1.80;;;;;;;;;;5065850;28;20033;-75
2022/02/08 09:08:59;;;;;;;2.25;0.90;;;;;;;;;;5064888;28;20039;-76
2022/02/08 09:11:44;;;;;;;4.25;1.13;;;;;;;;;;5051056;28;20121;-77
2022/02/08 09:14:12;;;;;;;2.50;1.67;;;;;;;;;;5065051;28;20033;-77
2022/02/08 09:29:48;;;;;;;8.00;1.35;;;;;;;;;;5049978;28;20029;-74
2022/02/08 09:32:32;;;;;;;4.28;1.10;;;;;;;;;;5050608;28;20899;-77
2022/02/08 09:34:58;;;;;;;3.05;1.55;;;;;;;;;;5064515;28;20037;-76
2022/02/08 09:37:24;;;;;;;4.18;1.05;;;;;;;;;;5049666;28;20373;-75
2022/02/08 09:39:51;;;;;;;5.38;1.42;;;;;;;;;;5065961;28;20024;-77
2022/02/08 09:42:18;;;;;;;2.00;1.20;;;;;;;;;;5049277;28;20107;-77
2022/02/08 09:44:44;;;;;;;3.15;1.42;;;;;;;;;;5049828;28;20025;-77
2022/02/08 09:47:15;;;;;;;3.22;1.60;;;;;;;;;;5050030;28;20037;-77
2022/02/08 09:49:51;;;;;;;3.20;1.58;;;;;;;;;;5064888;28;20024;-77
2022/02/08 09:52:19;;;;;;;4.97;1.48;;;;;;;;;;5065218;28;20063;-77
2022/02/08 09:54:46;;;;;;;1.55;0.90;;;;;;;;;;5049306;28;21665;-78
2022/02/08 09:57:12;;;;;;;6.18;1.40;;;;;;;;;;5065334;28;20734;-76
2022/02/08 09:59:38;;;;;;;6.80;1.40;;;;;;;;;;5049824;28;20033;-76
2022/02/08 10:02:05;;;;;;;1.30;0.45;;;;;;;;;;5049788;28;20025;-74
2022/02/08 10:04:31;;;;;;;5.70;0.82;;;;;;;;;;5050314;28;20630;-75
2022/02/08 10:07:09;;;;;;;0.60;0.35;;;;;;;;;;5049690;28;20091;-75
2022/02/08 10:09:35;;;;;;;2.25;0.70;;;;;;;;;;5065610;28;20028;-76
2022/02/08 10:12:02;;;;;;;3.15;1.50;;;;;;;;;;5050480;28;20112;-76
2022/02/08 10:22:29;;;;;;;2.70;0.68;;;;;;;;;;5052786;28;20029;-77
2022/02/08 10:24:59;;;;;;;1.80;0.80;;;;;;;;;;5052634;28;20714;-76
2022/02/08 10:27:33;;;;;;;2.63;1.58;;;;;;;;;;5069249;28;20043;-76
2022/02/08 10:38:07;;;;;;;3.53;0.75;;;;;;;;;;5052708;28;20035;-76
2022/02/08 10:40:38;;;;;;;3.75;0.75;;;;;;;;;;5052998;28;20032;-76
2022/02/08 10:43:04;;;;;;;3.53;0.82;;;;;;;;;;5051807;28;20036;-77
2022/02/08 10:45:32;;;;;;;2.20;0.70;;;;;;;;;;5067862;28;20025;-77
2022/02/08 10:48:03;;;;;;;1.77;0.75;;;;;;;;;;5052571;28;20025;-75
2022/02/08 10:50:31;;;;;;;3.00;1.23;;;;;;;;;;5052510;28;20641;-77
2022/02/08 10:52:59;;;;;;;7.18;1.50;;;;;;;;;;5051984;28;20029;-76
2022/02/08 11:03:26;;;;;;;1.67;0.47;;;;;;;;;;5052620;28;20933;-77
2022/02/08 11:09:34;;;;;;;2.45;0.40;;;;;;;;;;5051575;28;20033;-75
2022/02/08 11:12:09;;;;;;;6.18;1.17;;;;;;;;;;5051093;28;20052;-76
2022/02/08 11:14:59;;;;;;;1.50;0.73;;;;;;;;;;5067747;28;20123;-77
2022/02/08 11:22:46;;;;;;;0.40;0.10;;;;;;;;;;5052095;28;20122;-77
2022/02/08 11:25:28;;;;;;;4.10;0.85;;;;;;;;;;5067757;28;20078;-78
2022/02/08 11:28:05;;;;;;;3.85;0.52;;;;;;;;;;5067561;28;20028;-76
2022/02/08 11:30:45;;;;;;;1.55;0.90;;;;;;;;;;5066914;28;20290;-77
2022/02/08 11:33:31;;;;;;;4.85;1.13;;;;;;;;;;5051217;28;20132;-76
2022/02/08 11:41:01;;;;;;;1.25;1.15;;;;;;;;;;5052448;28;20051;-77
2022/02/08 11:50:39;;;;;;;0.45;0.43;;;;;;;;;;5051621;28;20037;-77
2022/02/08 11:53:16;;;;;;;2.67;1.48;;;;;;;;;;5066594;28;20696;-77
2022/02/08 11:58:51;;;;;;;2.05;0.80;;;;;;;;;;5051645;28;20581;-77
2022/02/08 12:01:25;;;;;;;2.72;1.10;;;;;;;;;;5050924;28;20665;-77
2022/02/08 12:09:20;;;;;;;3.17;1.20;;;;;;;;;;5052247;28;20088;-77
2022/02/08 12:35:36;;;;;;;3.70;0.50;;;;;;;;;;5050933;28;20310;-77
2022/02/08 12:54:40;;;;;;;;;;;;;;;;;;5050994;28;20048;-76
2022/02/08 13:02:24;;;;;;;1.90;0.63;;;;;;;;;;5050855;28;20102;-74
2022/02/08 14:02:00;;;;;;;0.55;0.47;;;;;;;;;;5054316;28;20086;-76
2022/02/08 14:09:38;;;;;;;0.60;0.25;;;;;;;;;;5053276;28;20029;-77
2022/02/08 14:15:07;;;;;;;1.08;0.65;;;;;;;;;;5054296;28;20051;-77
2022/02/08 14:17:59;;;;;;;2.65;0.55;;;;;;;;;;5052817;28;20037;-75
2022/02/08 14:25:29;;;;;;;0.50;0.30;;;;;;;;;;5053549;28;20028;-76
2022/02/08 14:34:10;;;;;;;2.65;0.35;;;;;;;;;;5028317;28;20116;-76
2022/02/08 15:08:44;;;;;;;0.32;0.20;;;;;;;;;;5051036;28;20037;-74
2022/02/08 15:11:12;;;;;;;0.82;0.40;;;;;;;;;;5052125;28;20465;-76
2022/02/08 15:13:47;;;;;;;0.35;0.30;;;;;;;;;;5051851;28;20032;-76
2022/02/08 15:16:26;;;;;;;0.88;0.38;;;;;;;;;;5052160;28;20029;-76
2022/02/08 15:18:53;;;;;;;1.40;0.20;;;;;;;;;;5053069;28;20119;-78
2022/02/08 15:21:24;;;;;;;0.57;0.30;;;;;;;;;;5051725;28;20075;-77
2022/02/08 15:23:50;;;;;;;0.98;0.35;;;;;;;;;;5068884;28;20103;-75
2022/02/08 15:26:17;;;;;;;0.47;0.30;;;;;;;;;;5067907;28;20036;-75
2022/02/08 15:28:43;;;;;;;0.63;0.20;;;;;;;;;;5052054;28;20060;-76
2022/02/08 15:31:11;;;;;;;0.80;0.20;;;;;;;;;;5051545;28;20044;-77
2022/02/08 15:33:40;;;;;;;1.17;0.50;;;;;;;;;;5051803;28;20044;-77
2022/02/08 15:36:06;;;;;;;2.47;0.38;;;;;;;;;;5066502;28;20111;-76
2022/02/08 15:38:33;;;;;;;0.60;0.55;;;;;;;;;;5051530;28;20047;-76
2022/02/08 15:41:02;;;;;;;1.27;0.50;;;;;;;;;;5051870;28;20032;-76
2022/02/08 15:43:28;;;;;;;1.15;0.55;;;;;;;;;;5051969;28;20257;-77
2022/02/08 15:48:23;;;;;;;0.95;0.45;;;;;;;;;;5051079;28;20041;-76
2022/02/08 15:56:31;;;;;;;0.47;0.20;;;;;;;;;;5061485;28;20039;-77
2022/02/08 16:09:39;;;;;;;0.95;0.75;;;;;;;;;;5052135;28;20090;-76
2022/02/08 16:20:14;;;;;;;;;;;;;;;;;;5043377;28;20043;-76
2022/02/08 16:28:25;;;;;;;0.73;0.30;;;;;;;;;;5052046;28;20033;-78
2022/02/08 16:57:31;;;;;;;3.65;0.90;;;;;;;;;;5050994;28;20044;-77
2022/02/08 17:00:01;;;;;;;1.02;0.45;;;;;;;;;;5066700;28;20361;-76
2022/02/08 17:02:28;;;;;;;0.60;0.20;;;;;;;;;;5051372;28;20119;-77
2022/02/08 17:04:55;;;;;;;0.30;0.20;;;;;;;;;;5051254;28;20036;-76
2022/02/08 17:07:22;;;;;;;2.22;0.95;;;;;;;;;;5051608;28;20032;-75
2022/02/08 17:09:55;;;;;;;0.30;0.10;;;;;;;;;;5038461;28;20048;-77
2022/02/08 17:12:54;;;;;;;1.65;0.43;;;;;;;;;;5051087;28;20033;-77
2022/02/08 17:47:40;;;;;;;1.88;0.32;;;;;;;;;;5054342;28;20123;-77
2022/02/08 17:50:13;;;;;;;1.27;0.63;;;;;;;;;;5069971;28;20072;-78
2022/02/08 17:52:42;;;;;;;0.75;0.47;;;;;;;;;;5069877;28;20057;-77
2022/02/08 17:55:09;;;;;;;1.48;0.40;;;;;;;;;;5070501;28;20028;-76
2022/02/08 17:57:36;;;;;;;0.82;0.52;;;;;;;;;;5054453;28;20036;-78
2022/02/08 18:00:03;;;;;;;0.10;0.10;;;;;;;;;;5068873;28;20098;-78
2022/02/08 18:02:29;;;;;;;0.68;0.22;;;;;;;;;;5034400;28;20107;-75
2022/02/08 18:05:00;;;;;;;1.33;0.73;;;;;;;;;;5054294;28;20060;-76
2022/02/08 18:07:27;;;;;;;0.98;0.32;;;;;;;;;;5069436;28;20036;-77
2022/02/08 18:09:54;;;;;;;0.68;0.30;;;;;;;;;;5069800;28;20041;-76
2022/02/08 18:12:22;;;;;;;0.32;0.30;;;;;;;;;;5054972;28;20044;-75
2022/02/08 18:14:54;;;;;;;0.50;0.40;;;;;;;;;;5054105;28;20890;-76
2022/02/08 18:17:26;;;;;;;1.10;0.60;;;;;;;;;;5054276;28;20040;-77
2022/02/08 18:20:03;;;;;;;0.60;0.40;;;;;;;;;;5052462;28;20822;-77
2022/02/08 18:25:31;;;;;;;0.57;0.30;;;;;;;;;;5053762;28;20117;-77
2022/02/08 19:11:41;;;;;;;1.77;1.00;;;;;;;;;;5053620;28;20098;-75
2022/02/08 19:17:03;;;;;;;2.10;0.80;;;;;;;;;;5052249;28;20069;-76
2022/02/08 19:22:07;;;;;;;2.28;0.45;;;;;;;;;;5051498;28;20033;-77
2022/02/08 19:24:34;;;;;;;3.50;0.68;;;;;;;;;;5067831;28;20029;-76
2022/02/08 19:27:01;;;;;;;20.95;2.38;;;;;;;;;;5052337;28;20059;-77
2022/02/08 19:29:33;;;;;;;5.80;1.17;;;;;;;;;;5051895;28;20539;-75
2022/02/08 19:32:00;;;;;;;2.53;1.00;;;;;;;;;;5067352;28;20052;-77
2022/02/08 19:34:26;;;;;;;1.30;0.90;;;;;;;;;;5066652;28;20036;-77
2022/02/08 19:36:57;;;;;;;3.13;0.88;;;;;;;;;;5067928;28;20033;-76
2022/02/08 19:39:26;;;;;;;3.08;0.70;;;;;;;;;;5051561;28;20048;-77
2022/02/08 19:41:52;;;;;;;4.10;0.60;;;;;;;;;;5052364;28;20361;-76
2022/02/08 19:44:18;;;;;;;1.13;0.43;;;;;;;;;;5051215;28;20025;-77
2022/02/08 19:46:44;;;;;;;1.77;0.80;;;;;;;;;;5051886;28;20082;-74
2022/02/08 19:49:11;;;;;;;1.65;0.60;;;;;;;;;;5052433;28;20043;-75
2022/02/08 19:51:38;;;;;;;2.17;0.60;;;;;;;;;;5066605;28;20728;-76
2022/02/08 19:54:07;;;;;;;2.03;0.70;;;;;;;;;;5066993;28;20043;-75
2022/02/08 19:56:49;;;;;;;1.73;0.65;;;;;;;;;;5068256;28;20025;-78
2022/02/08 19:59:31;;;;;;;3.90;0.65;;;;;;;;;;5051496;28;20174;-77
2022/02/08 20:01:57;;;;;;;4.60;0.90;;;;;;;;;;5051720;28;20036;-75
2022/02/08 20:04:26;;;;;;;2.30;0.85;;;;;;;;;;5067517;28;20037;-76
2022/02/08 20:06:57;;;;;;;2.03;1.00;;;;;;;;;;5050537;28;20127;-77
2022/02/08 20:09:26;;;;;;;2.33;0.50;;;;;;;;;;5050924;28;20028;-74
2022/02/08 20:11:52;;;;;;;0.65;0.40;;;;;;;;;;5051737;28;20173;-77
2022/02/08 20:14:21;;;;;;;1.20;0.60;;;;;;;;;;5066326;28;20028;-76
2022/02/08 20:16:48;;;;;;;1.13;0.63;;;;;;;;;;5051847;28;20041;-76
2022/02/08 20:19:16;;;;;;;1.33;0.63;;;;;;;;;;5051220;28;20086;-79
2022/02/08 20:21:43;;;;;;;3.08;0.75;;;;;;;;;;5051237;28;20460;-76
2022/02/08 20:24:13;;;;;;;3.28;1.15;;;;;;;;;;5066375;28;20033;-76
2022/02/08 20:27:14;;;;;;;3.20;0.60;;;;;;;;;;5051272;28;20090;-77
2022/02/08 20:29:39;;;;;;;0.85;0.65;;;;;;;;;;5050518;28;20106;-76
2022/02/08 20:32:06;;;;;;;1.15;0.40;;;;;;;;;;5053041;28;20028;-77
2022/02/08 20:34:34;;;;;;;2.38;0.70;;;;;;;;;;5051497;28;20032;-78
2022/02/08 20:37:00;;;;;;;1.08;0.55;;;;;;;;;;5066467;28;20036;-77
2022/02/08 20:39:27;;;;;;;1.25;0.80;;;;;;;;;;5050913;28;20017;-76
2022/02/08 20:41:54;;;;;;;2.33;0.70;;;;;;;;;;5050383;28;20035;-76
2022/02/08 20:44:24;;;;;;;2.35;1.08;;;;;;;;;;5050295;28;20025;-77
2022/02/08 20:47:00;;;;;;;1.52;0.70;;;;;;;;;;5051702;28;20036;-76
2022/02/08 20:49:29;;;;;;;0.77;0.60;;;;;;;;;;5051438;28;20032;-77
2022/02/08 20:51:55;;;;;;;1.88;0.60;;;;;;;;;;5051034;28;20033;-77
2022/02/08 20:54:26;;;;;;;1.80;0.80;;;;;;;;;;5067445;28;20744;-77
2022/02/08 20:57:11;;;;;;;0.95;0.38;;;;;;;;;;5051567;28;20091;-76
2022/02/08 20:59:37;;;;;;;8.30;0.80;;;;;;;;;;5050719;28;20572;-76
2022/02/08 21:02:03;;;;;;;2.47;0.77;;;;;;;;;;5050297;28;20029;-77
2022/02/08 21:04:42;;;;;;;0.82;0.57;;;;;;;;;;5050251;28;20031;-77
2022/02/08 21:07:08;;;;;;;2.15;0.88;;;;;;;;;;5066084;28;20028;-76
2022/02/08 21:09:35;;;;;;;0.70;0.57;;;;;;;;;;5051689;28;20080;-75
2022/02/08 21:12:17;;;;;;;2.80;0.75;;;;;;;;;;5050341;28;20028;-77
2022/02/08 21:14:44;;;;;;;1.55;0.63;;;;;;;;;;5049811;28;20033;-75
2022/02/08 21:17:13;;;;;;;1.38;0.43;;;;;;;;;;5050105;28;20147;-77
2022/02/08 21:19:40;;;;;;;1.85;0.75;;;;;;;;;;5049942;28;20067;-76
2022/02/08 21:22:08;;;;;;;1.25;0.65;;;;;;;;;;5050366;28;20024;-77
2022/02/08 21:24:35;;;;;;;1.95;0.80;;;;;;;;;;5052870;28;20029;-78
2022/02/08 21:27:03;;;;;;;1.58;0.63;;;;;;;;;;5050735;28;20499;-77
2022/02/08 21:32:36;;;;;;;0.77;0.40;;;;;;;;;;5050151;28;20567;-77
2022/02/08 21:51:25;;;;;;;0.15;0.15;;;;;;;;;;5050256;28;21629;-78
2022/02/08 21:53:53;;;;;;;0.88;0.65;;;;;;;;;;5049994;28;20489;-76
2022/02/08 21:56:20;;;;;;;2.42;0.88;;;;;;;;;;5064391;28;20047;-76
2022/02/08 21:58:46;;;;;;;1.00;0.40;;;;;;;;;;5050137;28;20083;-76
2022/02/08 22:01:12;;;;;;;1.35;0.40;;;;;;;;;;5050428;28;20159;-76
2022/02/08 22:03:39;;;;;;;3.15;0.85;;;;;;;;;;5049780;28;20380;-76
2022/02/08 22:06:06;;;;;;;0.25;0.20;;;;;;;;;;5049869;28;20025;-75
2022/02/08 22:21:41;;;;;;;0.85;0.47;;;;;;;;;;5054301;28;20038;-77
2022/02/08 22:24:34;;;;;;;2.05;0.65;;;;;;;;;;5070100;28;20105;-76
2022/02/08 22:27:43;;;;;;;2.40;1.17;;;;;;;;;;5054728;28;20507;-76
2022/02/08 22:29:54;;;;;;;1.60;0.47;;;;;;;;;;5052174;28;20443;-78
2022/02/08 22:32:28;;;;;;;1.13;0.30;;;;;;;;;;5068187;28;20033;-75
2022/02/08 22:35:05;;;;;;;1.02;0.30;;;;;;;;;;5052964;28;20028;-76
2022/02/08 22:37:35;;;;;;;0.25;0.20;;;;;;;;;;5053169;28;20028;-76
2022/02/08 22:40:08;;;;;;;0.40;0.30;;;;;;;;;;5055029;28;20473;-77
2022/02/08 22:42:43;;;;;;;2.03;0.47;;;;;;;;;;5052627;28;20082;-76
2022/02/08 22:45:14;;;;;;;0.30;0.30;;;;;;;;;;5068993;28;20115;-76
2022/02/08 22:47:42;;;;;;;3.45;0.70;;;;;;;;;;5052956;28;20098;-77
2022/02/08 22:50:11;;;;;;;0.95;0.30;;;;;;;;;;5053531;28;20043;-76
2022/02/08 22:52:40;;;;;;;0.52;0.25;;;;;;;;;;5068982;28;20090;-76
2022/02/08 22:55:06;;;;;;;1.65;0.47;;;;;;;;;;5052258;28;20123;-76
2022/02/08 22:57:33;;;;;;;0.90;0.30;;;;;;;;;;5053645;28;20043;-76
2022/02/08 23:00:02;;;;;;;0.52;0.20;;;;;;;;;;5052456;28;20020;-75
2022/02/08 23:02:28;;;;;;;0.47;0.40;;;;;;;;;;5052873;28;20393;-75
2022/02/08 23:04:54;;;;;;;0.47;0.30;;;;;;;;;;5068216;28;20115;-77
2022/02/08 23:07:20;;;;;;;0.68;0.52;;;;;;;;;;5052616;28;20036;-77
2022/02/08 23:09:56;;;;;;;0.65;0.25;;;;;;;;;;5067021;28;20040;-76
2022/02/08 23:39:23;;;;;;;0.25;0.20;;;;;;;;;;5052345;28;20021;-75
2022/02/08 23:41:50;;;;;;;0.50;0.40;;;;;;;;;;5053552;28;21570;-76
2022/02/08 23:44:16;;;;;;;0.98;0.30;;;;;;;;;;5067064;28;20193;-76
2022/02/08 23:46:42;;;;;;;1.10;0.22;;;;;;;;;;5068215;28;20055;-76
2022/02/08 23:51:50;;;;;;;4.72;0.43;;;;;;;;;;5051646;28;20046;-77
2022/02/08 23:54:22;;;;;;;0.50;0.30;;;;;;;;;;5051887;28;20029;-77
2022/02/08 23:56:57;;;;;;;0.50;0.30;;;;;;;;;;5052796;28;20408;-76
2022/02/08 23:59:39;;;;;;;1.63;0.50;;;;;;;;;;5067828;28;20953;-76
